Time;durP1;ratioP1;P1;durP2;ratioP2;P2;SDS_P1;SDS_P2;PMS_P1;PMS_P2;Temp;Humidity;BMP_temperature;BMP_pressure;BME280_temperature;BME280_humidity;BME280_pressure;Samples;Min_cycle;Max_cycle;Signal;HPM_P1;HPM_P2
2022/05/25 00:00:08;;;;;;;7.55;4.50;;;;;;;11.29;91.86;101051.63;5032088;28;20103;-76
2022/05/25 00:02:33;;;;;;;6.72;4.32;;;;;;;11.29;91.88;101048.06;5028181;28;20057;-76
2022/05/25 00:04:59;;;;;;;5.30;4.10;;;;;;;11.28;91.64;101051.84;5015122;28;20036;-76
2022/05/25 00:07:24;;;;;;;8.35;4.40;;;;;;;11.28;91.58;101062.69;5030756;28;20044;-77
2022/05/25 00:09:49;;;;;;;5.13;4.35;;;;;;;11.26;91.77;101053.94;5033199;28;20396;-77
2022/05/25 00:12:15;;;;;;;6.40;4.00;;;;;;;11.24;91.52;101058.78;5032761;28;20033;-75
2022/05/25 00:14:41;;;;;;;4.68;4.25;;;;;;;11.27;92.06;101058.31;5032275;28;20471;-76
2022/05/25 00:17:07;;;;;;;6.57;4.75;;;;;;;11.27;91.87;101061.84;5032697;28;20096;-77
2022/05/25 00:22:16;;;;;;;6.18;4.75;;;;;;;11.28;91.60;101060.00;5032975;28;20689;-75
2022/05/25 00:24:41;;;;;;;6.72;4.95;;;;;;;11.21;92.17;101064.63;5032279;28;20025;-76
2022/05/25 00:27:07;;;;;;;6.25;4.68;;;;;;;11.22;91.95;101063.56;5031040;28;20397;-77
2022/05/25 00:29:32;;;;;;;6.85;5.38;;;;;;;11.17;92.04;101064.25;5032406;28;20044;-77
2022/05/25 00:31:59;;;;;;;5.95;5.30;;;;;;;11.17;92.35;101062.38;5032384;28;20100;-74
2022/05/25 00:34:24;;;;;;;7.18;5.25;;;;;;;11.12;92.93;101070.31;5032028;28;20061;-76
2022/05/25 00:36:49;;;;;;;7.30;5.60;;;;;;;11.14;92.15;101068.25;5032393;28;20060;-76
2022/05/25 00:39:15;;;;;;;6.90;5.50;;;;;;;11.08;92.52;101066.44;5032683;28;20060;-78
2022/05/25 00:41:40;;;;;;;5.95;5.30;;;;;;;11.11;93.10;101057.00;5032195;28;20041;-74
2022/05/25 00:44:06;;;;;;;7.50;6.05;;;;;;;11.06;93.24;101065.81;5031963;28;20068;-78
2022/05/25 00:46:34;;;;;;;7.93;5.53;;;;;;;11.03;92.91;101066.25;5032285;28;20025;-78
2022/05/25 00:49:12;;;;;;;7.10;5.50;;;;;;;11.03;93.12;101070.84;5032250;28;20029;-74
2022/05/25 00:51:55;;;;;;;10.18;5.68;;;;;;;11.05;93.84;101075.00;5032329;28;20116;-78
2022/05/25 00:54:26;;;;;;;12.63;5.60;;;;;;;11.04;92.93;101077.94;5030859;28;20478;-75
2022/05/25 00:56:55;;;;;;;9.80;5.78;;;;;;;11.03;93.22;101079.78;5032215;28;20394;-77
2022/05/25 00:59:26;;;;;;;6.68;5.18;;;;;;;11.02;93.03;101075.44;5032387;28;20064;-77
2022/05/25 01:01:51;;;;;;;8.23;5.68;;;;;;;11.01;92.84;101079.19;5024172;28;20054;-78
2022/05/25 01:04:17;;;;;;;10.77;6.10;;;;;;;10.98;92.59;101080.47;5026654;28;20041;-77
2022/05/25 01:07:04;;;;;;;7.97;5.68;;;;;;;10.96;93.24;101084.44;5032038;28;20077;-76
2022/05/25 01:09:47;;;;;;;6.90;6.10;;;;;;;10.93;93.44;101090.28;5031704;28;20159;-76
2022/05/25 01:12:42;;;;;;;8.07;5.63;;;;;;;10.97;93.16;101095.03;5014835;28;20474;-75
2022/05/25 01:15:10;;;;;;;6.90;6.25;;;;;;;10.95;93.19;101091.75;4994851;28;20483;-79
2022/05/25 01:17:44;;;;;;;10.15;6.25;;;;;;;10.93;93.50;101090.28;5011086;28;20038;-76
2022/05/25 01:20:49;;;;;;;8.30;6.28;;;;;;;10.93;93.71;101093.00;5016148;28;20188;-77
2022/05/25 01:23:41;;;;;;;7.97;5.75;;;;;;;10.91;93.40;101085.09;5021553;28;20033;-77
2022/05/25 01:26:30;;;;;;;9.30;6.05;;;;;;;10.87;93.95;101088.47;5036452;28;20156;-78
2022/05/25 01:29:02;;;;;;;8.27;6.10;;;;;;;10.81;93.52;101090.22;5034870;28;20088;-77
2022/05/25 01:31:36;;;;;;;8.63;6.45;;;;;;;10.84;93.30;101094.34;5026789;28;20041;-74
2022/05/25 01:34:10;;;;;;;10.80;6.10;;;;;;;10.78;93.37;101086.06;5034252;28;20033;-76
2022/05/25 01:37:13;;;;;;;10.48;6.60;;;;;;;10.75;94.04;101083.78;5035341;28;20171;-77
2022/05/25 01:39:47;;;;;;;11.75;6.35;;;;;;;10.72;94.31;101089.66;5018033;28;20045;-76
2022/05/25 01:42:19;;;;;;;7.30;6.05;;;;;;;10.71;94.32;101085.28;5034219;28;20079;-75
2022/05/25 01:44:51;;;;;;;10.63;6.13;;;;;;;10.70;94.23;101089.00;5034013;28;20029;-78
2022/05/25 01:47:18;;;;;;;9.35;7.05;;;;;;;10.74;93.76;101101.06;5034481;28;20017;-75
2022/05/25 01:50:10;;;;;;;9.40;6.50;;;;;;;10.71;94.18;101096.09;5033980;28;20029;-76
2022/05/25 01:52:42;;;;;;;9.20;6.50;;;;;;;10.71;93.71;101112.34;5027512;28;20053;-77
2022/05/25 01:55:14;;;;;;;6.78;6.13;;;;;;;10.67;93.76;101102.16;5034372;28;20043;-76
2022/05/25 01:57:46;;;;;;;9.57;6.75;;;;;;;10.62;94.11;101100.13;5032594;28;20029;-76
2022/05/25 02:00:28;;;;;;;8.05;6.72;;;;;;;10.71;94.19;101106.09;5034148;28;20084;-76
2022/05/25 02:05:47;;;;;;;8.02;6.47;;;;;;;10.57;94.40;101099.97;5034937;28;20036;-75
2022/05/25 02:08:55;;;;;;;13.25;6.85;;;;;;;10.61;93.63;101107.44;5033754;28;20037;-76
2022/05/25 02:11:34;;;;;;;13.18;6.57;;;;;;;10.52;94.39;101102.47;5005797;28;20033;-77
2022/05/25 02:14:15;;;;;;;8.82;6.95;;;;;;;10.53;94.09;101101.44;5035035;28;20033;-74
2022/05/25 02:16:47;;;;;;;9.68;6.20;;;;;;;10.47;94.07;101108.53;5033232;28;20040;-79
2022/05/25 02:19:45;;;;;;;8.75;6.53;;;;;;;10.49;93.98;101106.44;5023748;28;20041;-75
2022/05/25 02:22:17;;;;;;;10.98;6.57;;;;;;;10.39;94.60;101106.94;5031991;28;20049;-73
2022/05/25 02:24:45;;;;;;;10.68;6.88;;;;;;;10.39;94.77;101104.22;5033362;28;20025;-78
2022/05/25 02:27:18;;;;;;;9.80;6.35;;;;;;;10.39;94.90;101111.53;5034511;28;20033;-74
2022/05/25 02:29:50;;;;;;;8.90;6.93;;;;;;;10.35;94.88;101104.88;5016255;28;20041;-73
2022/05/25 02:32:24;;;;;;;8.13;6.40;;;;;;;10.32;94.41;101113.41;5033549;28;20033;-72
2022/05/25 02:34:53;;;;;;;8.55;6.30;;;;;;;10.26;94.92;101120.50;5031751;28;20397;-73
2022/05/25 02:37:24;;;;;;;10.88;6.88;;;;;;;10.25;94.87;101114.25;5031929;28;20048;-76
2022/05/25 02:39:52;;;;;;;8.02;6.20;;;;;;;10.21;95.07;101120.31;5016496;28;20367;-75
2022/05/25 02:42:18;;;;;;;9.98;6.57;;;;;;;10.19;94.97;101117.84;5033224;28;20025;-74
2022/05/25 02:44:43;;;;;;;9.65;6.53;;;;;;;10.21;94.15;101129.25;5033164;28;20116;-75
2022/05/25 02:47:09;;;;;;;8.32;6.60;;;;;;;10.17;94.55;101128.03;5032910;28;20021;-75
2022/05/25 02:49:35;;;;;;;9.45;5.95;;;;;;;10.14;94.95;101135.75;5033120;28;20025;-76
2022/05/25 02:52:01;;;;;;;6.97;6.28;;;;;;;10.09;94.67;101129.09;5034581;28;20100;-76
2022/05/25 02:54:26;;;;;;;10.15;6.28;;;;;;;10.07;95.17;101128.50;5034461;28;20028;-74
2022/05/25 02:56:52;;;;;;;12.82;6.65;;;;;;;10.10;94.79;101132.66;5032341;28;20025;-75
2022/05/25 02:59:17;;;;;;;6.85;5.88;;;;;;;10.07;94.50;101133.91;5033198;28;20043;-74
2022/05/25 03:01:43;;;;;;;9.38;6.10;;;;;;;10.04;94.66;101142.44;5012564;28;20490;-75
2022/05/25 03:04:09;;;;;;;12.75;5.90;;;;;;;10.03;94.76;101139.97;5034332;28;20031;-74
2022/05/25 03:06:34;;;;;;;7.80;5.25;;;;;;;10.00;94.68;101138.50;5015985;28;20041;-76
2022/05/25 03:09:00;;;;;;;9.82;5.65;;;;;;;10.02;94.99;101144.50;5032698;28;20045;-76
2022/05/25 03:11:26;;;;;;;8.15;5.32;;;;;;;10.01;94.52;101137.47;5033091;28;20069;-76
2022/05/25 03:13:51;;;;;;;9.50;5.90;;;;;;;10.01;94.80;101145.59;5033374;28;20086;-75
2022/05/25 03:16:19;;;;;;;11.68;6.05;;;;;;;9.99;94.73;101144.94;5032772;28;20486;-74
2022/05/25 03:18:45;;;;;;;8.35;5.18;;;;;;;10.04;94.66;101149.72;5032329;28;20401;-74
2022/05/25 03:21:10;;;;;;;7.57;5.20;;;;;;;10.07;94.79;101155.53;5032761;28;20463;-73
2022/05/25 03:23:37;;;;;;;8.63;5.70;;;;;;;10.09;93.99;101150.75;5033335;28;20078;-76
2022/05/25 03:26:03;;;;;;;9.15;5.53;;;;;;;10.04;93.68;101145.16;5033687;28;20078;-75
2022/05/25 03:28:28;;;;;;;10.38;5.75;;;;;;;10.07;94.39;101149.28;5032603;28;20033;-76
2022/05/25 03:30:54;;;;;;;8.27;5.65;;;;;;;10.05;94.55;101148.69;5032030;28;20398;-75
2022/05/25 03:33:20;;;;;;;10.38;5.38;;;;;;;10.04;94.47;101144.31;5031659;28;20029;-75
2022/05/25 03:35:45;;;;;;;12.07;5.80;;;;;;;10.05;94.79;101157.59;5032201;28;20025;-74
2022/05/25 03:38:11;;;;;;;10.57;5.53;;;;;;;9.98;94.05;101146.00;5033735;28;20025;-75
2022/05/25 03:40:38;;;;;;;8.88;5.40;;;;;;;9.99;94.78;101158.47;5033099;28;20386;-74
2022/05/25 03:43:05;;;;;;;9.75;5.47;;;;;;;9.97;94.61;101160.56;5033119;28;20030;-74
2022/05/25 03:45:31;;;;;;;11.02;5.43;;;;;;;9.96;94.54;101166.19;5033506;28;20017;-75
2022/05/25 03:47:56;;;;;;;8.45;5.22;;;;;;;10.00;94.44;101168.25;5031663;28;20441;-74
2022/05/25 03:50:23;;;;;;;8.63;5.75;;;;;;;10.00;95.24;101170.94;5031988;28;20095;-73
2022/05/25 03:52:48;;;;;;;8.23;5.38;;;;;;;10.01;94.20;101167.22;5031240;28;20021;-75
2022/05/25 03:55:14;;;;;;;7.43;5.32;;;;;;;10.02;94.18;101184.25;5031281;28;20025;-75
2022/05/25 03:57:39;;;;;;;8.05;5.20;;;;;;;9.97;94.60;101181.38;5031950;28;20056;-76
2022/05/25 04:00:07;;;;;;;10.45;5.45;;;;;;;9.96;94.21;101175.13;5033037;28;20053;-74
2022/05/25 04:02:32;;;;;;;10.70;5.60;;;;;;;10.01;94.72;101178.03;5027008;28;20498;-75
2022/05/25 04:05:10;;;;;;;11.05;5.18;;;;;;;9.98;94.31;101181.16;5032675;28;20040;-76
2022/05/25 04:07:45;;;;;;;7.95;5.20;;;;;;;10.00;93.50;101184.47;5031559;28;20104;-75
2022/05/25 04:10:14;;;;;;;7.65;5.30;;;;;;;9.99;94.61;101190.09;5014083;28;20049;-73
2022/05/25 04:12:41;;;;;;;10.52;5.15;;;;;;;9.96;94.83;101185.09;5011903;28;20018;-75
2022/05/25 04:15:08;;;;;;;11.90;5.10;;;;;;;9.89;94.24;101190.53;4995419;28;20037;-75
2022/05/25 04:17:33;;;;;;;6.53;4.80;;;;;;;9.86;94.68;101185.56;5013305;28;20058;-75
2022/05/25 04:19:59;;;;;;;11.85;5.63;;;;;;;9.83;94.75;101185.97;4995494;28;20061;-76
2022/05/25 04:22:25;;;;;;;10.00;5.28;;;;;;;9.87;95.20;101201.56;5013057;28;20466;-74
2022/05/25 04:24:51;;;;;;;10.32;5.80;;;;;;;9.91;95.41;101199.25;4980384;28;20133;-74
2022/05/25 04:27:17;;;;;;;9.85;5.25;;;;;;;9.86;95.16;101196.38;4992034;28;20089;-75
2022/05/25 04:29:42;;;;;;;6.95;4.68;;;;;;;9.87;94.89;101195.31;4993031;28;20427;-75
2022/05/25 04:32:08;;;;;;;8.63;5.55;;;;;;;9.85;95.55;101203.63;4975935;28;20073;-75
2022/05/25 04:34:34;;;;;;;10.27;5.38;;;;;;;9.86;95.07;101199.91;4997919;28;20087;-73
2022/05/25 04:37:48;;;;;;;11.85;5.32;;;;;;;9.83;95.33;101192.22;5011519;28;20033;-76
2022/05/25 04:39:45;;;;;;;9.23;5.00;;;;;;;9.88;95.52;101203.22;5012284;28;20026;-73
2022/05/25 04:42:11;;;;;;;9.63;5.00;;;;;;;9.90;95.80;101200.28;5011274;28;20038;-74
2022/05/25 04:44:37;;;;;;;9.63;5.03;;;;;;;9.90;95.60;101203.00;5011461;28;20034;-76
2022/05/25 04:47:07;;;;;;;7.47;5.07;;;;;;;9.85;96.17;101195.53;5011330;28;20128;-76
2022/05/25 04:49:33;;;;;;;7.53;4.80;;;;;;;9.96;96.04;101209.44;5011473;28;20063;-73
2022/05/25 04:51:59;;;;;;;10.30;4.93;;;;;;;9.94;96.37;101205.06;5010993;28;20029;-74
2022/05/25 04:54:24;;;;;;;8.40;5.00;;;;;;;9.97;95.61;101206.53;5012262;28;20025;-75
2022/05/25 04:59:34;;;;;;;10.65;4.50;;;;;;;10.06;96.40;101202.53;5012697;28;20129;-74
2022/05/25 05:02:00;;;;;;;10.32;4.95;;;;;;;10.10;95.54;101205.66;5007434;28;20148;-74
2022/05/25 05:04:28;;;;;;;11.05;4.75;;;;;;;10.13;96.06;101215.19;5011251;28;20026;-75
2022/05/25 05:06:54;;;;;;;9.45;4.78;;;;;;;10.13;96.01;101217.91;5012028;28;20037;-75
2022/05/25 05:09:19;;;;;;;9.45;4.57;;;;;;;10.13;96.10;101220.63;5012142;28;20046;-75
2022/05/25 05:11:45;;;;;;;13.60;5.93;;;;;;;10.16;96.26;101215.63;5010725;28;20026;-75
2022/05/25 05:14:13;;;;;;;10.10;4.80;;;;;;;10.24;95.69;101225.38;5011314;28;20497;-73
2022/05/25 05:16:38;;;;;;;8.95;5.00;;;;;;;10.27;95.70;101222.25;5011080;28;20034;-74
2022/05/25 05:19:04;;;;;;;9.40;5.25;;;;;;;10.29;95.97;101212.03;5011240;28;20033;-74
2022/05/25 05:21:29;;;;;;;10.52;4.95;;;;;;;10.32;95.87;101214.31;5010534;28;20620;-75
2022/05/25 05:23:55;;;;;;;9.40;5.15;;;;;;;10.38;95.51;101216.19;5010912;28;20030;-74
2022/05/25 05:26:20;;;;;;;11.27;5.00;;;;;;;10.38;95.94;101202.66;5010720;28;20061;-75
2022/05/25 05:28:46;;;;;;;10.02;4.72;;;;;;;10.41;95.90;101204.94;4991174;28;20027;-73
2022/05/25 05:31:13;;;;;;;9.95;4.72;;;;;;;10.53;96.19;101201.56;4991575;28;20409;-75
2022/05/25 05:33:39;;;;;;;11.23;4.80;;;;;;;10.61;96.04;101204.00;4991416;28;20027;-73
2022/05/25 05:36:07;;;;;;;12.13;4.80;;;;;;;10.64;95.55;101206.28;4992603;28;20113;-75
2022/05/25 05:38:36;;;;;;;9.43;4.60;;;;;;;10.60;95.91;101200.47;5005901;28;20034;-73
2022/05/25 05:41:02;;;;;;;9.82;5.10;;;;;;;10.66;95.38;101201.50;5011829;28;20509;-74
2022/05/25 05:43:28;;;;;;;11.20;5.05;;;;;;;10.68;95.49;101199.38;5010720;28;20053;-75
2022/05/25 05:45:55;;;;;;;12.00;5.28;;;;;;;10.77;96.13;101197.25;5011906;28;20150;-73
2022/05/25 05:48:23;;;;;;;13.60;5.07;;;;;;;10.78;95.57;101202.47;5010334;28;20042;-74
2022/05/25 05:50:50;;;;;;;9.68;5.20;;;;;;;10.85;95.54;101193.47;5011805;28;20084;-73
2022/05/25 05:53:18;;;;;;;10.27;5.03;;;;;;;10.92;96.13;101199.66;4994484;28;20045;-74
2022/05/25 05:55:46;;;;;;;13.52;5.38;;;;;;;10.98;94.70;101198.78;5011691;28;20566;-73
2022/05/25 05:58:12;;;;;;;11.27;5.05;;;;;;;11.03;95.06;101198.94;4999316;28;20129;-72
2022/05/25 06:00:39;;;;;;;12.93;5.43;;;;;;;11.03;95.09;101209.78;5007187;28;20589;-73
2022/05/25 06:03:05;;;;;;;8.73;6.07;;;;;;;11.05;94.68;101205.00;5006631;28;20057;-74
2022/05/25 06:05:32;;;;;;;13.35;6.00;;;;;;;11.11;95.13;101208.69;5007838;28;20549;-74
2022/05/25 06:08:07;;;;;;;11.02;5.18;;;;;;;11.13;94.70;101206.59;5008200;28;20058;-74
2022/05/25 06:10:32;;;;;;;11.32;5.30;;;;;;;11.18;94.25;101215.69;5034111;28;20033;-72
2022/05/25 06:12:58;;;;;;;15.13;5.93;;;;;;;11.23;94.64;101214.22;5033788;28;20033;-74
2022/05/25 06:20:51;;;;;;;10.77;6.10;;;;;;;11.33;93.82;101225.41;5034927;28;20045;-72
2022/05/25 06:23:16;;;;;;;15.77;5.60;;;;;;;11.36;94.79;101233.09;5033865;28;20393;-74
2022/05/25 06:25:42;;;;;;;15.25;6.60;;;;;;;11.43;93.46;101236.56;5016929;28;20042;-73
2022/05/25 06:28:11;;;;;;;11.80;5.78;;;;;;;11.45;93.96;101239.06;5034492;28;20508;-73
2022/05/25 06:30:39;;;;;;;13.30;7.30;;;;;;;11.47;94.68;101243.22;5033580;28;20033;-72
2022/05/25 06:33:07;;;;;;;15.52;6.82;;;;;;;11.56;93.89;101251.06;5033274;28;20488;-74
2022/05/25 06:35:34;;;;;;;14.25;6.28;;;;;;;11.64;93.67;101235.34;5016571;28;20500;-72
2022/05/25 06:38:00;;;;;;;15.23;6.28;;;;;;;11.70;92.92;101244.47;5016926;28;20547;-73
2022/05/25 06:40:27;;;;;;;16.50;7.30;;;;;;;11.67;93.71;101244.91;5034846;28;20045;-74
2022/05/25 06:42:52;;;;;;;14.00;7.32;;;;;;;11.79;93.81;101247.72;5034488;28;20032;-74
2022/05/25 06:45:18;;;;;;;12.10;8.23;;;;;;;11.81;92.92;101238.31;5033167;28;20033;-73
2022/05/25 06:47:44;;;;;;;22.52;8.90;;;;;;;11.84;93.82;101251.41;5034182;28;20151;-72
2022/05/25 06:50:14;;;;;;;16.83;10.52;;;;;;;11.90;93.76;101257.84;5033374;28;20041;-73
2022/05/25 06:52:41;;;;;;;15.95;10.95;;;;;;;11.92;92.92;101249.47;5033243;28;20064;-73
2022/05/25 06:55:16;;;;;;;18.17;10.88;;;;;;;11.93;94.23;101253.91;5032034;28;20032;-74
2022/05/25 06:57:52;;;;;;;20.23;10.88;;;;;;;11.97;92.64;101257.78;5033034;28;20414;-73
2022/05/25 07:00:28;;;;;;;15.07;9.52;;;;;;;11.95;92.70;101258.03;5032455;28;20037;-73
2022/05/25 07:03:04;;;;;;;18.65;9.55;;;;;;;11.90;92.40;101255.13;5008024;28;20081;-73
2022/05/25 07:05:40;;;;;;;15.43;9.80;;;;;;;11.91;92.65;101269.50;5032148;28;20112;-73
2022/05/25 07:08:19;;;;;;;16.10;9.27;;;;;;;11.87;93.23;101274.56;5033474;28;20033;-73
2022/05/25 07:11:00;;;;;;;14.85;9.50;;;;;;;11.86;92.97;101271.00;5032331;28;20029;-72
2022/05/25 07:13:27;;;;;;;16.08;9.48;;;;;;;12.00;93.13;101276.34;5032229;28;20390;-73
2022/05/25 07:16:15;;;;;;;16.75;10.73;;;;;;;12.01;92.33;101272.56;5032286;28;20478;-72
2022/05/25 07:18:43;;;;;;;17.20;10.02;;;;;;;11.98;93.18;101275.75;5032415;28;20033;-72
2022/05/25 07:21:14;;;;;;;15.60;10.23;;;;;;;11.98;92.07;101278.44;5032492;28;20026;-73
2022/05/25 07:23:42;;;;;;;15.48;9.93;;;;;;;11.92;91.78;101292.88;5033116;28;20030;-72
2022/05/25 07:26:08;;;;;;;15.82;9.60;;;;;;;11.95;92.83;101292.47;5032141;28;20036;-72
2022/05/25 07:28:35;;;;;;;19.00;10.32;;;;;;;12.04;92.25;101288.41;5033985;28;20045;-72
2022/05/25 07:31:05;;;;;;;15.43;10.35;;;;;;;12.04;92.46;101289.22;5032404;28;20036;-72
2022/05/25 07:33:30;;;;;;;12.93;9.95;;;;;;;12.08;92.13;101295.03;5032245;28;20099;-74
2022/05/25 07:35:57;;;;;;;18.55;10.00;;;;;;;12.10;91.50;101292.09;5033565;28;20029;-78
2022/05/25 07:38:23;;;;;;;16.50;9.20;;;;;;;12.08;92.41;101289.63;5016119;28;20048;-78
2022/05/25 07:40:49;;;;;;;16.00;9.27;;;;;;;12.18;91.75;101292.66;5033187;28;20057;-75
2022/05/25 07:43:18;;;;;;;12.15;9.00;;;;;;;12.31;92.20;101293.56;5030135;28;20076;-78
2022/05/25 07:45:46;;;;;;;13.73;7.93;;;;;;;12.41;91.13;101291.16;5039461;28;20090;-72
2022/05/25 07:48:12;;;;;;;15.20;7.85;;;;;;;12.58;91.05;101302.22;5033254;28;20048;-79
2022/05/25 07:50:39;;;;;;;11.10;7.53;;;;;;;12.66;89.24;101301.06;5032630;28;20487;-77
2022/05/25 07:53:55;;;;;;;13.20;7.82;;;;;;;12.75;89.48;101302.41;5044088;28;20559;-79
2022/05/25 07:55:54;;;;;;;13.90;7.68;;;;;;;12.83;89.10;101304.84;5032739;28;20117;-74
2022/05/25 07:58:20;;;;;;;11.57;7.22;;;;;;;12.89;89.26;101300.34;5033183;28;20109;-76
2022/05/25 08:00:46;;;;;;;11.10;6.70;;;;;;;12.97;88.46;101307.34;5030696;28;20014;-73
2022/05/25 08:05:59;;;;;;;10.80;6.82;;;;;;;13.23;87.60;101301.56;5032838;28;20493;-73
2022/05/25 08:08:25;;;;;;;12.40;6.38;;;;;;;13.19;86.67;101305.78;5032636;28;20038;-77
2022/05/25 08:10:55;;;;;;;11.15;6.05;;;;;;;13.26;88.02;101308.44;5031524;28;20040;-77
2022/05/25 08:13:21;;;;;;;9.73;5.85;;;;;;;13.33;87.80;101311.03;5030623;28;20117;-75
2022/05/25 08:15:47;;;;;;;10.07;5.40;;;;;;;13.38;86.16;101311.22;5031556;28;20052;-76
2022/05/25 08:18:15;;;;;;;8.80;5.55;;;;;;;13.46;86.75;101317.13;5031352;28;20451;-77
2022/05/25 08:20:41;;;;;;;10.57;5.60;;;;;;;13.50;86.17;101305.78;5032783;28;20025;-74
2022/05/25 08:23:09;;;;;;;7.93;5.03;;;;;;;13.54;86.18;101302.38;5032148;28;20515;-77
2022/05/25 08:25:36;;;;;;;8.55;4.90;;;;;;;13.70;84.39;101310.91;5032915;28;20037;-76
2022/05/25 08:28:03;;;;;;;10.00;4.60;;;;;;;13.71;83.94;101310.69;5030600;28;20071;-76
2022/05/25 08:30:29;;;;;;;9.73;4.60;;;;;;;13.76;85.05;101305.34;5032798;28;20036;-78
2022/05/25 08:32:55;;;;;;;10.10;4.50;;;;;;;13.82;84.17;101300.88;5031948;28;20033;-75
2022/05/25 08:35:21;;;;;;;9.60;4.47;;;;;;;13.92;86.24;101292.09;5032820;28;20398;-75
2022/05/25 08:37:46;;;;;;;7.68;4.32;;;;;;;14.04;84.17;101297.56;5032683;28;20034;-78
2022/05/25 08:40:20;;;;;;;7.25;3.88;;;;;;;14.15;82.44;101299.47;5031260;28;20386;-78
2022/05/25 08:43:01;;;;;;;9.45;4.30;;;;;;;14.15;82.96;101294.00;5014981;28;20110;-72
2022/05/25 08:45:57;;;;;;;11.77;4.63;;;;;;;14.24;80.75;101289.03;5032111;28;20036;-79
2022/05/25 08:48:24;;;;;;;8.48;3.85;;;;;;;14.32;78.57;101300.38;5013449;28;20040;-76
2022/05/25 08:50:53;;;;;;;7.45;3.63;;;;;;;14.45;80.93;101290.31;5038133;28;20021;-77
2022/05/25 08:53:21;;;;;;;8.07;4.05;;;;;;;14.48;79.59;101296.09;5052608;28;20037;-75
2022/05/25 08:56:44;;;;;;;9.35;3.92;;;;;;;14.50;79.89;101291.22;5042647;28;20497;-81
2022/05/25 08:59:12;;;;;;;5.40;3.25;;;;;;;14.67;78.20;101294.06;5032320;28;20025;-74
2022/05/25 09:01:43;;;;;;;8.63;3.60;;;;;;;14.69;77.30;101293.81;5020461;28;20499;-74
2022/05/25 09:04:34;;;;;;;6.15;2.50;;;;;;;14.75;76.51;101305.63;5029053;28;20025;-74
2022/05/25 09:07:03;;;;;;;7.93;2.83;;;;;;;14.71;72.63;101308.84;5015096;28;20037;-74
2022/05/25 09:09:43;;;;;;;7.35;2.60;;;;;;;14.69;74.15;101297.38;5030336;28;20415;-75
2022/05/25 09:12:48;;;;;;;5.25;2.83;;;;;;;14.79;72.10;101307.63;5031553;28;20057;-76
2022/05/25 09:15:23;;;;;;;6.05;2.55;;;;;;;14.81;71.64;101300.06;5029974;28;20071;-75
2022/05/25 09:17:55;;;;;;;6.25;2.95;;;;;;;14.80;70.65;101311.19;5029862;28;20029;-76
2022/05/25 09:20:39;;;;;;;6.85;2.33;;;;;;;14.83;69.54;101308.00;5031812;28;20386;-75
2022/05/25 09:23:11;;;;;;;9.25;2.20;;;;;;;14.88;69.70;101308.06;5030138;28;20025;-78
2022/05/25 09:25:46;;;;;;;4.55;1.98;;;;;;;14.99;68.34;101312.66;5013523;28;20108;-76
2022/05/25 09:28:21;;;;;;;6.20;1.83;;;;;;;15.16;65.78;101323.59;5029960;28;20505;-76
2022/05/25 09:30:58;;;;;;;5.35;1.60;;;;;;;15.12;64.80;101313.44;5014345;28;20034;-76
2022/05/25 09:33:50;;;;;;;3.83;1.55;;;;;;;15.11;66.41;101317.22;5029915;28;20033;-75
2022/05/25 09:36:25;;;;;;;4.18;1.73;;;;;;;15.02;63.15;101312.19;5013890;28;20441;-75
2022/05/25 09:39:36;;;;;;;9.52;1.50;;;;;;;15.01;63.26;101315.97;5032040;28;20033;-76
2022/05/25 09:42:15;;;;;;;6.20;1.33;;;;;;;14.89;62.31;101316.00;5018994;28;20029;-76
2022/05/25 09:45:00;;;;;;;6.65;1.40;;;;;;;15.00;63.95;101313.47;5016232;28;20405;-76
2022/05/25 09:47:46;;;;;;;7.20;1.17;;;;;;;15.28;63.51;101315.38;5035209;28;20064;-77
2022/05/25 09:50:41;;;;;;;3.03;1.23;;;;;;;15.51;63.91;101308.94;5033903;28;20112;-75
2022/05/25 09:53:27;;;;;;;2.83;1.30;;;;;;;15.59;60.46;101313.16;5034640;28;20029;-78
2022/05/25 09:56:23;;;;;;;3.85;1.40;;;;;;;15.58;62.37;101314.25;5034141;28;20074;-77
2022/05/25 09:58:59;;;;;;;7.00;1.33;;;;;;;15.75;62.54;101331.44;5033940;28;20462;-78
2022/05/25 10:01:45;;;;;;;5.13;1.10;;;;;;;15.87;62.28;101327.84;5005171;28;20049;-78
2022/05/25 10:04:18;;;;;;;2.47;1.40;;;;;;;15.96;60.79;101329.09;5017444;28;20083;-78
2022/05/25 10:06:58;;;;;;;5.50;1.30;;;;;;;15.87;60.49;101339.59;5033850;28;20079;-76
2022/05/25 10:09:51;;;;;;;2.97;1.33;;;;;;;15.84;59.48;101333.81;5040260;28;20124;-79
2022/05/25 10:12:28;;;;;;;2.45;0.88;;;;;;;15.88;60.91;101334.94;5033357;28;20037;-79
2022/05/25 10:15:09;;;;;;;3.63;1.48;;;;;;;15.87;61.31;101334.13;5034221;28;20037;-75
2022/05/25 10:17:39;;;;;;;;;;;;;;;16.07;60.40;101333.59;5029213;28;20033;-79
2022/05/25 10:20:36;;;;;;;5.70;1.13;;;;;;;16.07;59.32;101328.16;5013037;28;19955;-78
2022/05/25 10:23:07;;;;;;;3.88;0.98;;;;;;;16.20;56.98;101337.06;5014219;28;20380;-74
2022/05/25 10:26:11;;;;;;;8.90;1.23;;;;;;;16.15;57.07;101334.25;5007120;28;20437;-75
2022/05/25 10:29:05;;;;;;;7.13;1.00;;;;;;;16.02;57.25;101336.28;4989207;28;20503;-75
2022/05/25 10:37:10;;;;;;;2.80;1.20;;;;;;;15.92;56.54;101317.00;5013361;28;20076;-74
2022/05/25 10:39:42;;;;;;;2.60;0.80;;;;;;;15.85;57.25;101314.47;5013654;28;20586;-76
2022/05/25 10:42:44;;;;;;;2.53;0.90;;;;;;;15.80;56.38;101311.63;5013563;28;20275;-77
2022/05/25 10:45:38;;;;;;;2.65;0.90;;;;;;;15.89;57.70;101317.50;5000217;28;20048;-76
2022/05/25 10:48:09;;;;;;;5.47;0.90;;;;;;;15.86;55.63;101320.72;4991173;28;20073;-75
2022/05/25 10:50:56;;;;;;;2.67;0.80;;;;;;;15.83;56.65;101321.22;5005580;28;20088;-75
2022/05/25 10:57:07;;;;;;;1.70;0.73;;;;;;;16.19;57.04;101319.88;5014876;28;20104;-79
2022/05/25 10:59:42;;;;;;;2.42;0.90;;;;;;;16.07;56.08;101319.13;5013144;28;20399;-79
2022/05/25 11:02:37;;;;;;;2.28;1.13;;;;;;;15.92;55.66;101308.81;4992674;28;20141;-79
2022/05/25 11:05:24;;;;;;;2.22;0.82;;;;;;;15.91;56.37;101312.63;5014524;28;20030;-79
2022/05/25 11:08:00;;;;;;;3.65;1.10;;;;;;;15.81;57.26;101317.94;4996797;28;20121;-80
2022/05/25 11:10:40;;;;;;;5.47;1.20;;;;;;;15.92;56.99;101323.28;5015905;28;20694;-80
2022/05/25 11:13:14;;;;;;;3.40;1.10;;;;;;;15.99;56.99;101322.28;5012592;28;20034;-78
2022/05/25 11:16:19;;;;;;;2.75;0.80;;;;;;;16.23;56.23;101333.81;5014474;28;20021;-79
2022/05/25 11:19:06;;;;;;;3.05;0.98;;;;;;;16.27;56.02;101321.34;5013078;28;20442;-79
2022/05/25 11:21:53;;;;;;;3.58;1.10;;;;;;;16.25;57.26;101318.03;5017842;28;20068;-80
2022/05/25 11:24:48;;;;;;;5.38;0.90;;;;;;;16.58;54.50;101305.38;5012609;28;20479;-80
2022/05/25 11:27:26;;;;;;;1.17;0.75;;;;;;;16.77;54.88;101309.44;4996428;28;20037;-79
2022/05/25 11:30:40;;;;;;;7.32;1.17;;;;;;;16.99;52.96;101312.16;4996365;28;20026;-79
2022/05/25 11:33:50;;;;;;;5.47;1.02;;;;;;;17.16;54.17;101300.28;5012607;28;20038;-79
2022/05/25 11:36:51;;;;;;;3.88;1.30;;;;;;;17.28;51.90;101298.22;5012603;28;20037;-79
2022/05/25 11:39:24;;;;;;;1.40;0.80;;;;;;;17.42;52.01;101308.72;5013579;28;20130;-79
2022/05/25 11:42:14;;;;;;;4.55;1.20;;;;;;;17.40;51.41;101295.31;5011592;28;20371;-80
2022/05/25 11:45:08;;;;;;;4.57;1.02;;;;;;;17.45;52.12;101298.13;4996180;28;20030;-79
2022/05/25 11:48:04;;;;;;;4.45;1.00;;;;;;;17.43;51.51;101296.72;4996058;28;20033;-80
2022/05/25 11:51:12;;;;;;;3.28;1.08;;;;;;;17.23;51.82;101302.84;4994573;28;20037;-79
2022/05/25 11:53:51;;;;;;;3.00;1.08;;;;;;;17.25;52.42;101293.25;4995545;28;20049;-79
2022/05/25 11:56:39;;;;;;;4.15;1.15;;;;;;;17.28;52.46;101294.66;5026979;28;20084;-79
2022/05/25 11:59:35;;;;;;;4.70;1.10;;;;;;;17.30;53.97;101290.59;5031351;28;20564;-79
2022/05/25 12:02:37;;;;;;;3.15;0.98;;;;;;;17.24;51.09;101301.72;5009249;28;20453;-80
2022/05/25 12:05:58;;;;;;;1.38;0.82;;;;;;;17.09;51.39;101305.13;4978043;28;20048;-80
2022/05/25 12:08:37;;;;;;;2.05;0.90;;;;;;;17.25;52.12;101293.25;4989848;28;20202;-79
2022/05/25 12:11:42;;;;;;;2.42;1.02;;;;;;;17.47;51.26;101285.00;5003081;28;20108;-79
2022/05/25 12:21:46;;;;;;;7.40;0.90;;;;;;;17.24;50.84;101299.84;5003093;28;20041;-79
2022/05/25 12:27:40;;;;;;;2.15;0.90;;;;;;;16.93;48.58;101317.81;4986372;28;20081;-79
2022/05/25 12:31:01;;;;;;;;;;;;;;;;;;;;;